sensor_id;sensor_type;location;lat;lon;timestamp;pressure;altitude;pressure_sealevel;temperature;humidity
77216;BME280;66210;53.282;9.864;2023-11-19T00:02:26;100285.69;;;4.83;100.00
77216;BME280;66210;53.282;9.864;2023-11-19T00:04:53;100281.63;;;4.85;100.00
77216;BME280;66210;53.282;9.864;2023-11-19T00:07:20;100274.94;;;4.85;100.00
77216;BME280;66210;53.282;9.864;2023-11-19T00:09:50;100256.94;;;4.79;100.00
77216;BME280;66210;53.282;9.864;2023-11-19T00:12:16;100261.84;;;4.91;100.00
77216;BME280;66210;53.282;9.864;2023-11-19T00:14:44;100243.06;;;4.86;100.00
77216;BME280;66210;53.282;9.864;2023-11-19T00:17:10;100245.09;;;4.91;100.00
77216;BME280;66210;53.282;9.864;2023-11-19T00:19:37;100185.91;;;4.70;100.00
77216;BME280;66210;53.282;9.864;2023-11-19T00:22:04;100217.41;;;4.91;100.00
77216;BME280;66210;53.282;9.864;2023-11-19T00:24:31;100216.72;;;4.94;100.00
77216;BME280;66210;53.282;9.864;2023-11-19T00:26:58;100192.84;;;4.87;100.00
77216;BME280;66210;53.282;9.864;2023-11-19T00:29:25;100185.81;;;4.96;100.00
77216;BME280;66210;53.282;9.864;2023-11-19T00:31:51;100184.84;;;4.94;100.00
77216;BME280;66210;53.282;9.864;2023-11-19T00:34:19;100191.63;;;4.95;100.00
77216;BME280;66210;53.282;9.864;2023-11-19T00:36:48;100160.69;;;4.83;100.00
77216;BME280;66210;53.282;9.864;2023-11-19T00:39:15;100166.28;;;4.92;100.00
77216;BME280;66210;53.282;9.864;2023-11-19T00:41:42;100157.06;;;4.93;100.00
77216;BME280;66210;53.282;9.864;2023-11-19T00:44:09;100146.84;;;4.90;100.00
77216;BME280;66210;53.282;9.864;2023-11-19T00:46:36;100157.06;;;4.93;100.00
77216;BME280;66210;53.282;9.864;2023-11-19T00:49:03;100172.22;;;5.08;100.00
77216;BME280;66210;53.282;9.864;2023-11-19T00:51:30;100170.56;;;5.08;100.00
77216;BME280;66210;53.282;9.864;2023-11-19T00:53:58;100149.66;;;5.09;100.00
77216;BME280;66210;53.282;9.864;2023-11-19T00:56:25;100140.28;;;5.07;100.00
77216;BME280;66210;53.282;9.864;2023-11-19T00:58:52;100142.69;;;5.05;100.00
77216;BME280;66210;53.282;9.864;2023-11-19T01:01:19;100150.63;;;5.11;100.00
77216;BME280;66210;53.282;9.864;2023-11-19T01:03:46;100125.50;;;5.13;100.00
77216;BME280;66210;53.282;9.864;2023-11-19T01:06:13;100101.97;;;5.12;100.00
77216;BME280;66210;53.282;9.864;2023-11-19T01:08:42;100099.47;;;5.12;100.00
77216;BME280;66210;53.282;9.864;2023-11-19T01:11:19;100096.16;;;5.13;100.00
77216;BME280;66210;53.282;9.864;2023-11-19T01:13:48;100070.03;;;4.96;100.00
77216;BME280;66210;53.282;9.864;2023-11-19T01:16:15;100059.34;;;5.00;100.00
77216;BME280;66210;53.282;9.864;2023-11-19T01:18:42;100087.28;;;5.20;100.00
77216;BME280;66210;53.282;9.864;2023-11-19T01:21:08;100078.53;;;5.13;100.00
77216;BME280;66210;53.282;9.864;2023-11-19T01:23:35;100072.81;;;5.16;100.00
77216;BME280;66210;53.282;9.864;2023-11-19T01:26:03;100051.19;;;5.05;100.00
77216;BME280;66210;53.282;9.864;2023-11-19T01:28:32;100078.28;;;5.24;100.00
77216;BME280;66210;53.282;9.864;2023-11-19T01:30:59;100052.66;;;5.16;100.00
77216;BME280;66210;53.282;9.864;2023-11-19T01:33:25;100044.31;;;5.17;100.00
77216;BME280;66210;53.282;9.864;2023-11-19T01:35:52;100054.16;;;5.27;100.00
77216;BME280;66210;53.282;9.864;2023-11-19T01:38:19;100050.66;;;5.25;100.00
77216;BME280;66210;53.282;9.864;2023-11-19T01:40:45;100035.31;;;5.20;100.00
77216;BME280;66210;53.282;9.864;2023-11-19T01:43:12;100039.88;;;5.28;100.00
77216;BME280;66210;53.282;9.864;2023-11-19T01:45:40;100035.72;;;5.28;100.00
77216;BME280;66210;53.282;9.864;2023-11-19T01:48:07;100047.00;;;5.35;100.00
77216;BME280;66210;53.282;9.864;2023-11-19T01:50:33;100043.06;;;5.40;100.00
77216;BME280;66210;53.282;9.864;2023-11-19T01:53:00;100014.97;;;5.32;100.00
77216;BME280;66210;53.282;9.864;2023-11-19T01:55:28;100006.44;;;5.30;100.00
77216;BME280;66210;53.282;9.864;2023-11-19T01:57:59;100010.50;;;5.43;100.00
77216;BME280;66210;53.282;9.864;2023-11-19T02:00:26;100013.53;;;5.52;100.00
77216;BME280;66210;53.282;9.864;2023-11-19T02:02:52;99999.38;;;5.54;100.00
77216;BME280;66210;53.282;9.864;2023-11-19T02:05:21;99989.91;;;5.50;100.00
77216;BME280;66210;53.282;9.864;2023-11-19T02:07:48;99969.31;;;5.42;100.00
77216;BME280;66210;53.282;9.864;2023-11-19T02:10:16;99986.91;;;5.57;100.00
77216;BME280;66210;53.282;9.864;2023-11-19T02:12:45;99990.31;;;5.58;100.00
77216;BME280;66210;53.282;9.864;2023-11-19T02:15:12;99979.13;;;5.53;100.00
77216;BME280;66210;53.282;9.864;2023-11-19T02:17:39;99954.72;;;5.52;100.00
77216;BME280;66210;53.282;9.864;2023-11-19T02:20:06;99946.97;;;5.49;100.00
77216;BME280;66210;53.282;9.864;2023-11-19T02:22:37;99940.28;;;5.49;100.00
77216;BME280;66210;53.282;9.864;2023-11-19T02:25:11;99953.88;;;5.68;100.00
77216;BME280;66210;53.282;9.864;2023-11-19T02:27:56;99950.66;;;5.70;100.00
77216;BME280;66210;53.282;9.864;2023-11-19T02:30:23;99942.28;;;5.71;100.00
77216;BME280;66210;53.282;9.864;2023-11-19T02:32:53;99937.34;;;5.73;100.00
77216;BME280;66210;53.282;9.864;2023-11-19T02:35:20;99918.50;;;5.66;100.00
77216;BME280;66210;53.282;9.864;2023-11-19T02:37:47;99928.28;;;5.76;100.00
77216;BME280;66210;53.282;9.864;2023-11-19T02:40:14;99913.94;;;5.75;100.00
77216;BME280;66210;53.282;9.864;2023-11-19T02:42:41;99904.94;;;5.80;100.00
77216;BME280;66210;53.282;9.864;2023-11-19T02:45:08;60394.31;;;-97.21;100.00
77216;BME280;66210;53.282;9.864;2023-11-19T02:47:41;60394.31;;;-145.67;100.00
77216;BME280;66210;53.282;9.864;2023-11-19T02:50:11;60394.31;;;-145.67;100.00
77216;BME280;66210;53.282;9.864;2023-11-19T02:52:41;60394.31;;;-145.67;100.00
77216;BME280;66210;53.282;9.864;2023-11-19T02:55:09;60394.31;;;-145.67;100.00
77216;BME280;66210;53.282;9.864;2023-11-19T02:57:36;60394.31;;;-145.67;100.00
77216;BME280;66210;53.282;9.864;2023-11-19T03:00:03;60394.31;;;-145.67;100.00
77216;BME280;66210;53.282;9.864;2023-11-19T03:02:39;60394.31;;;-145.67;100.00
77216;BME280;66210;53.282;9.864;2023-11-19T03:05:12;60394.31;;;-145.67;100.00
77216;BME280;66210;53.282;9.864;2023-11-19T03:07:41;60394.31;;;-145.67;100.00
77216;BME280;66210;53.282;9.864;2023-11-19T03:10:12;60394.31;;;-145.67;100.00
77216;BME280;66210;53.282;9.864;2023-11-19T03:12:41;60394.31;;;-145.67;100.00
77216;BME280;66210;53.282;9.864;2023-11-19T03:15:08;60394.31;;;-145.67;100.00
77216;BME280;66210;53.282;9.864;2023-11-19T03:17:39;60394.31;;;-145.67;100.00
77216;BME280;66210;53.282;9.864;2023-11-19T03:20:08;60394.31;;;-145.67;100.00
77216;BME280;66210;53.282;9.864;2023-11-19T03:22:41;60394.31;;;-145.67;100.00
77216;BME280;66210;53.282;9.864;2023-11-19T03:25:08;60394.31;;;-145.67;100.00
77216;BME280;66210;53.282;9.864;2023-11-19T03:27:39;60394.31;;;-145.67;100.00
77216;BME280;66210;53.282;9.864;2023-11-19T03:30:08;60394.31;;;-145.67;100.00
77216;BME280;66210;53.282;9.864;2023-11-19T03:32:38;60394.31;;;-145.67;100.00
77216;BME280;66210;53.282;9.864;2023-11-19T03:35:06;60394.31;;;-145.67;100.00
77216;BME280;66210;53.282;9.864;2023-11-19T03:37:35;60394.31;;;-145.67;100.00
77216;BME280;66210;53.282;9.864;2023-11-19T03:40:03;60394.31;;;-145.67;100.00
77216;BME280;66210;53.282;9.864;2023-11-19T03:42:31;60394.31;;;-145.67;100.00
77216;BME280;66210;53.282;9.864;2023-11-19T03:44:58;60394.31;;;-145.67;100.00
77216;BME280;66210;53.282;9.864;2023-11-19T03:47:24;60394.31;;;-145.67;100.00
77216;BME280;66210;53.282;9.864;2023-11-19T03:49:51;60394.31;;;-145.67;100.00
77216;BME280;66210;53.282;9.864;2023-11-19T03:52:18;60394.31;;;-145.67;100.00
77216;BME280;66210;53.282;9.864;2023-11-19T03:54:47;60394.31;;;-145.67;100.00
77216;BME280;66210;53.282;9.864;2023-11-19T03:57:13;60394.31;;;-145.67;100.00
77216;BME280;66210;53.282;9.864;2023-11-19T03:59:40;60394.31;;;-145.67;100.00
77216;BME280;66210;53.282;9.864;2023-11-19T04:02:07;60394.31;;;-145.67;100.00
77216;BME280;66210;53.282;9.864;2023-11-19T04:04:34;60394.31;;;-145.67;100.00
77216;BME280;66210;53.282;9.864;2023-11-19T04:07:01;60394.31;;;-145.67;100.00
77216;BME280;66210;53.282;9.864;2023-11-19T04:09:29;60394.31;;;-145.67;100.00
77216;BME280;66210;53.282;9.864;2023-11-19T04:11:57;60394.31;;;-145.67;100.00
77216;BME280;66210;53.282;9.864;2023-11-19T04:14:24;60394.31;;;-145.67;100.00
77216;BME280;66210;53.282;9.864;2023-11-19T04:16:51;60394.31;;;-145.67;100.00
77216;BME280;66210;53.282;9.864;2023-11-19T04:19:21;60394.31;;;-145.67;100.00
77216;BME280;66210;53.282;9.864;2023-11-19T04:21:48;60394.31;;;-145.67;100.00
77216;BME280;66210;53.282;9.864;2023-11-19T04:24:15;60394.31;;;-145.67;100.00
77216;BME280;66210;53.282;9.864;2023-11-19T04:26:43;60394.31;;;-145.67;100.00
77216;BME280;66210;53.282;9.864;2023-11-19T04:29:12;60394.31;;;-145.67;100.00
77216;BME280;66210;53.282;9.864;2023-11-19T04:31:39;60394.31;;;-145.67;100.00
77216;BME280;66210;53.282;9.864;2023-11-19T04:34:06;60394.31;;;-145.67;100.00
77216;BME280;66210;53.282;9.864;2023-11-19T04:36:33;60394.31;;;-145.67;100.00
77216;BME280;66210;53.282;9.864;2023-11-19T04:39:01;60394.31;;;-145.67;100.00
77216;BME280;66210;53.282;9.864;2023-11-19T04:41:28;60394.31;;;-145.67;100.00
77216;BME280;66210;53.282;9.864;2023-11-19T04:43:54;60394.31;;;-145.67;100.00
77216;BME280;66210;53.282;9.864;2023-11-19T04:46:21;60394.31;;;-145.67;100.00
77216;BME280;66210;53.282;9.864;2023-11-19T04:48:50;60394.31;;;-145.67;100.00
77216;BME280;66210;53.282;9.864;2023-11-19T04:51:17;60394.31;;;-145.67;100.00
77216;BME280;66210;53.282;9.864;2023-11-19T04:53:44;60394.31;;;-145.67;100.00
77216;BME280;66210;53.282;9.864;2023-11-19T04:56:11;60394.31;;;-145.67;100.00
77216;BME280;66210;53.282;9.864;2023-11-19T04:58:38;60394.31;;;-145.67;100.00
77216;BME280;66210;53.282;9.864;2023-11-19T05:01:06;60394.31;;;-145.67;100.00
77216;BME280;66210;53.282;9.864;2023-11-19T05:03:32;60394.31;;;-145.67;100.00
77216;BME280;66210;53.282;9.864;2023-11-19T05:05:59;60394.31;;;-145.67;100.00
77216;BME280;66210;53.282;9.864;2023-11-19T05:08:26;60394.31;;;-145.67;100.00
77216;BME280;66210;53.282;9.864;2023-11-19T05:10:53;60394.31;;;-145.67;100.00
77216;BME280;66210;53.282;9.864;2023-11-19T05:13:20;60394.31;;;-145.67;100.00
77216;BME280;66210;53.282;9.864;2023-11-19T05:15:47;60394.31;;;-145.67;100.00
77216;BME280;66210;53.282;9.864;2023-11-19T05:18:14;60394.31;;;-145.67;100.00
77216;BME280;66210;53.282;9.864;2023-11-19T05:20:40;60394.31;;;-145.67;100.00
77216;BME280;66210;53.282;9.864;2023-11-19T05:23:07;60394.31;;;-145.67;100.00
77216;BME280;66210;53.282;9.864;2023-11-19T05:25:47;60394.31;;;-145.67;100.00
77216;BME280;66210;53.282;9.864;2023-11-19T05:28:14;60394.31;;;-145.67;100.00
77216;BME280;66210;53.282;9.864;2023-11-19T05:30:41;60394.31;;;-145.67;100.00
77216;BME280;66210;53.282;9.864;2023-11-19T05:33:08;60394.31;;;-145.67;100.00
77216;BME280;66210;53.282;9.864;2023-11-19T05:35:34;60394.31;;;-145.67;100.00
77216;BME280;66210;53.282;9.864;2023-11-19T05:38:02;60394.31;;;-145.67;100.00
77216;BME280;66210;53.282;9.864;2023-11-19T05:40:29;60394.31;;;-145.67;100.00
77216;BME280;66210;53.282;9.864;2023-11-19T05:42:55;60394.31;;;-145.67;100.00
77216;BME280;66210;53.282;9.864;2023-11-19T05:45:22;60394.31;;;-145.67;100.00
77216;BME280;66210;53.282;9.864;2023-11-19T05:47:49;60394.31;;;-145.67;100.00
77216;BME280;66210;53.282;9.864;2023-11-19T05:50:16;60394.31;;;-145.67;100.00
77216;BME280;66210;53.282;9.864;2023-11-19T05:52:43;60394.31;;;-145.67;100.00
77216;BME280;66210;53.282;9.864;2023-11-19T05:55:09;60394.31;;;-145.67;100.00
77216;BME280;66210;53.282;9.864;2023-11-19T05:57:37;60394.31;;;-145.67;100.00
77216;BME280;66210;53.282;9.864;2023-11-19T06:00:12;60394.31;;;-145.67;100.00
77216;BME280;66210;53.282;9.864;2023-11-19T06:02:39;60394.31;;;-145.67;100.00
77216;BME280;66210;53.282;9.864;2023-11-19T06:05:06;60394.31;;;-145.67;100.00
77216;BME280;66210;53.282;9.864;2023-11-19T06:07:33;60394.31;;;-145.67;100.00
77216;BME280;66210;53.282;9.864;2023-11-19T06:10:00;60394.31;;;-145.67;100.00
77216;BME280;66210;53.282;9.864;2023-11-19T06:12:26;60394.31;;;-145.67;100.00
77216;BME280;66210;53.282;9.864;2023-11-19T06:14:54;60394.31;;;-145.67;100.00
77216;BME280;66210;53.282;9.864;2023-11-19T06:17:20;60394.31;;;-145.67;100.00
77216;BME280;66210;53.282;9.864;2023-11-19T06:19:47;60394.31;;;-145.67;100.00
77216;BME280;66210;53.282;9.864;2023-11-19T06:22:13;60394.31;;;-145.67;100.00
77216;BME280;66210;53.282;9.864;2023-11-19T06:24:40;60394.31;;;-145.67;100.00
77216;BME280;66210;53.282;9.864;2023-11-19T06:27:07;60394.31;;;-145.67;100.00
77216;BME280;66210;53.282;9.864;2023-11-19T06:29:34;60394.31;;;-145.67;100.00
77216;BME280;66210;53.282;9.864;2023-11-19T06:32:00;60394.31;;;-145.67;100.00
77216;BME280;66210;53.282;9.864;2023-11-19T06:34:41;60394.31;;;-145.67;100.00
77216;BME280;66210;53.282;9.864;2023-11-19T06:37:08;60394.31;;;-145.67;100.00
77216;BME280;66210;53.282;9.864;2023-11-19T06:39:35;60394.31;;;-145.67;100.00
77216;BME280;66210;53.282;9.864;2023-11-19T06:42:02;60394.31;;;-145.67;100.00
77216;BME280;66210;53.282;9.864;2023-11-19T06:44:29;60394.31;;;-145.67;100.00
77216;BME280;66210;53.282;9.864;2023-11-19T06:46:55;60394.31;;;-145.67;100.00
77216;BME280;66210;53.282;9.864;2023-11-19T06:49:22;60394.31;;;-145.67;100.00
77216;BME280;66210;53.282;9.864;2023-11-19T06:51:49;60394.31;;;-145.67;100.00
77216;BME280;66210;53.282;9.864;2023-11-19T06:54:16;60394.31;;;-145.67;100.00
77216;BME280;66210;53.282;9.864;2023-11-19T06:56:43;60394.31;;;-145.67;100.00
77216;BME280;66210;53.282;9.864;2023-11-19T06:59:10;60394.31;;;-145.67;100.00
77216;BME280;66210;53.282;9.864;2023-11-19T07:01:36;60394.31;;;-145.67;100.00
77216;BME280;66210;53.282;9.864;2023-11-19T07:04:03;60394.31;;;-145.67;100.00
77216;BME280;66210;53.282;9.864;2023-11-19T07:06:36;60394.31;;;-145.67;100.00
77216;BME280;66210;53.282;9.864;2023-11-19T07:09:03;60394.31;;;-145.67;100.00
77216;BME280;66210;53.282;9.864;2023-11-19T07:11:41;60394.31;;;-145.67;100.00
77216;BME280;66210;53.282;9.864;2023-11-19T07:14:08;60394.31;;;-145.67;100.00
77216;BME280;66210;53.282;9.864;2023-11-19T07:16:35;60394.31;;;-145.67;100.00
77216;BME280;66210;53.282;9.864;2023-11-19T07:19:05;60394.31;;;-145.67;100.00
77216;BME280;66210;53.282;9.864;2023-11-19T07:21:32;60394.31;;;-145.67;100.00
77216;BME280;66210;53.282;9.864;2023-11-19T07:24:00;60394.31;;;-145.67;100.00
77216;BME280;66210;53.282;9.864;2023-11-19T07:26:26;60394.31;;;-145.67;100.00
77216;BME280;66210;53.282;9.864;2023-11-19T07:28:53;60394.31;;;-145.67;100.00
77216;BME280;66210;53.282;9.864;2023-11-19T07:31:21;60394.31;;;-145.67;100.00
77216;BME280;66210;53.282;9.864;2023-11-19T07:33:48;60394.31;;;-145.67;100.00
77216;BME280;66210;53.282;9.864;2023-11-19T07:36:15;60394.31;;;-145.67;100.00
77216;BME280;66210;53.282;9.864;2023-11-19T07:38:42;60394.31;;;-145.67;100.00
77216;BME280;66210;53.282;9.864;2023-11-19T07:41:09;60394.31;;;-145.67;100.00
77216;BME280;66210;53.282;9.864;2023-11-19T07:43:39;60394.31;;;-145.67;100.00
77216;BME280;66210;53.282;9.864;2023-11-19T07:46:11;60394.31;;;-145.67;100.00
77216;BME280;66210;53.282;9.864;2023-11-19T07:48:40;60394.31;;;-145.67;100.00
77216;BME280;66210;53.282;9.864;2023-11-19T07:51:06;60394.31;;;-145.67;100.00
77216;BME280;66210;53.282;9.864;2023-11-19T07:53:33;60394.31;;;-145.67;100.00
77216;BME280;66210;53.282;9.864;2023-11-19T07:56:00;60394.31;;;-145.67;100.00
77216;BME280;66210;53.282;9.864;2023-11-19T07:58:27;60394.31;;;-145.67;100.00
77216;BME280;66210;53.282;9.864;2023-11-19T08:00:54;60394.31;;;-145.67;100.00
77216;BME280;66210;53.282;9.864;2023-11-19T08:03:21;60394.31;;;-145.67;100.00
77216;BME280;66210;53.282;9.864;2023-11-19T08:05:51;60394.31;;;-145.67;100.00
77216;BME280;66210;53.282;9.864;2023-11-19T08:08:18;60394.31;;;-145.67;100.00
77216;BME280;66210;53.282;9.864;2023-11-19T08:10:44;60394.31;;;-145.67;100.00
77216;BME280;66210;53.282;9.864;2023-11-19T08:13:11;60394.31;;;-145.67;100.00
77216;BME280;66210;53.282;9.864;2023-11-19T08:15:38;60394.31;;;-145.67;100.00
77216;BME280;66210;53.282;9.864;2023-11-19T08:18:05;60394.31;;;-145.67;100.00
77216;BME280;66210;53.282;9.864;2023-11-19T08:20:33;60394.31;;;-145.67;100.00
77216;BME280;66210;53.282;9.864;2023-11-19T08:23:02;60394.31;;;-145.67;100.00
77216;BME280;66210;53.282;9.864;2023-11-19T08:25:30;60394.31;;;-145.67;100.00
77216;BME280;66210;53.282;9.864;2023-11-19T08:27:57;60394.31;;;-145.67;100.00
77216;BME280;66210;53.282;9.864;2023-11-19T08:30:24;60394.31;;;-145.67;100.00
77216;BME280;66210;53.282;9.864;2023-11-19T08:32:51;60394.31;;;-145.67;100.00
77216;BME280;66210;53.282;9.864;2023-11-19T08:35:18;60394.31;;;-145.67;100.00
77216;BME280;66210;53.282;9.864;2023-11-19T08:37:45;60394.31;;;-145.67;100.00
77216;BME280;66210;53.282;9.864;2023-11-19T08:40:12;60394.31;;;-145.67;100.00
77216;BME280;66210;53.282;9.864;2023-11-19T08:42:41;60394.31;;;-145.67;100.00
77216;BME280;66210;53.282;9.864;2023-11-19T08:45:08;60394.31;;;-145.67;100.00
77216;BME280;66210;53.282;9.864;2023-11-19T08:47:37;60394.31;;;-145.67;100.00
77216;BME280;66210;53.282;9.864;2023-11-19T08:50:04;60394.31;;;-145.67;100.00
77216;BME280;66210;53.282;9.864;2023-11-19T08:52:32;60394.31;;;-145.67;100.00
77216;BME280;66210;53.282;9.864;2023-11-19T08:55:01;60394.31;;;-145.67;100.00
77216;BME280;66210;53.282;9.864;2023-11-19T08:57:28;60394.31;;;-145.67;100.00
77216;BME280;66210;53.282;9.864;2023-11-19T08:59:55;60394.31;;;-145.67;100.00
77216;BME280;66210;53.282;9.864;2023-11-19T09:02:22;60394.31;;;-145.67;100.00
77216;BME280;66210;53.282;9.864;2023-11-19T09:04:48;60394.31;;;-145.67;100.00
77216;BME280;66210;53.282;9.864;2023-11-19T09:07:20;60394.31;;;-145.67;100.00
77216;BME280;66210;53.282;9.864;2023-11-19T09:09:48;60394.31;;;-145.67;100.00
77216;BME280;66210;53.282;9.864;2023-11-19T09:12:14;60394.31;;;-145.67;100.00
77216;BME280;66210;53.282;9.864;2023-11-19T09:14:41;60394.31;;;-145.67;100.00
77216;BME280;66210;53.282;9.864;2023-11-19T09:17:08;60394.31;;;-145.67;100.00
77216;BME280;66210;53.282;9.864;2023-11-19T09:19:37;60394.31;;;-145.67;100.00
77216;BME280;66210;53.282;9.864;2023-11-19T09:22:03;60394.31;;;-145.67;100.00
77216;BME280;66210;53.282;9.864;2023-11-19T09:24:30;60394.31;;;-145.67;100.00
77216;BME280;66210;53.282;9.864;2023-11-19T09:26:57;60394.31;;;-145.67;100.00
77216;BME280;66210;53.282;9.864;2023-11-19T09:29:24;60394.31;;;-145.67;100.00
77216;BME280;66210;53.282;9.864;2023-11-19T09:31:51;60394.31;;;-145.67;100.00
77216;BME280;66210;53.282;9.864;2023-11-19T09:34:18;60394.31;;;-145.67;100.00
77216;BME280;66210;53.282;9.864;2023-11-19T09:36:45;60394.31;;;-145.67;100.00
77216;BME280;66210;53.282;9.864;2023-11-19T09:39:12;60394.31;;;-145.67;100.00
77216;BME280;66210;53.282;9.864;2023-11-19T09:41:44;60394.31;;;-145.67;100.00
77216;BME280;66210;53.282;9.864;2023-11-19T09:44:12;60394.31;;;-145.67;100.00
77216;BME280;66210;53.282;9.864;2023-11-19T09:46:41;60394.31;;;-145.67;100.00
77216;BME280;66210;53.282;9.864;2023-11-19T09:49:08;60394.31;;;-145.67;100.00
77216;BME280;66210;53.282;9.864;2023-11-19T09:51:36;60394.31;;;-145.67;100.00
77216;BME280;66210;53.282;9.864;2023-11-19T09:54:03;60394.31;;;-145.67;100.00
77216;BME280;66210;53.282;9.864;2023-11-19T09:56:30;60394.31;;;-145.67;100.00
77216;BME280;66210;53.282;9.864;2023-11-19T09:58:58;60394.31;;;-145.67;100.00
77216;BME280;66210;53.282;9.864;2023-11-19T10:01:26;60394.31;;;-145.67;100.00
77216;BME280;66210;53.282;9.864;2023-11-19T10:03:55;60394.31;;;-145.67;100.00
77216;BME280;66210;53.282;9.864;2023-11-19T10:06:23;60394.31;;;-145.67;100.00
77216;BME280;66210;53.282;9.864;2023-11-19T10:08:51;60394.31;;;-145.67;100.00
77216;BME280;66210;53.282;9.864;2023-11-19T10:11:18;60394.31;;;-145.67;100.00
77216;BME280;66210;53.282;9.864;2023-11-19T10:13:45;60394.31;;;-145.67;100.00
77216;BME280;66210;53.282;9.864;2023-11-19T10:16:14;60394.31;;;-145.67;100.00
77216;BME280;66210;53.282;9.864;2023-11-19T10:18:48;60394.31;;;-145.67;100.00
77216;BME280;66210;53.282;9.864;2023-11-19T10:21:19;60394.31;;;-145.67;100.00
77216;BME280;66210;53.282;9.864;2023-11-19T10:23:54;60394.31;;;-145.67;100.00
77216;BME280;66210;53.282;9.864;2023-11-19T10:26:23;60394.31;;;-145.67;100.00
77216;BME280;66210;53.282;9.864;2023-11-19T10:28:50;60394.31;;;-145.67;100.00
77216;BME280;66210;53.282;9.864;2023-11-19T10:31:18;60394.31;;;-145.67;100.00
77216;BME280;66210;53.282;9.864;2023-11-19T10:33:45;60394.31;;;-145.67;100.00
77216;BME280;66210;53.282;9.864;2023-11-19T10:36:12;60394.31;;;-145.67;100.00
77216;BME280;66210;53.282;9.864;2023-11-19T10:38:40;60394.31;;;-145.67;100.00
77216;BME280;66210;53.282;9.864;2023-11-19T10:41:07;60394.31;;;-145.67;100.00
77216;BME280;66210;53.282;9.864;2023-11-19T10:43:43;60394.31;;;-145.67;100.00
77216;BME280;66210;53.282;9.864;2023-11-19T10:46:14;60394.31;;;-145.67;100.00
77216;BME280;66210;53.282;9.864;2023-11-19T10:48:41;60394.31;;;-145.67;100.00
77216;BME280;66210;53.282;9.864;2023-11-19T10:51:08;60394.31;;;-145.67;100.00
77216;BME280;66210;53.282;9.864;2023-11-19T10:53:36;60394.31;;;-145.67;100.00
77216;BME280;66210;53.282;9.864;2023-11-19T10:56:06;60394.31;;;-145.67;100.00
77216;BME280;66210;53.282;9.864;2023-11-19T10:58:42;60394.31;;;-145.67;100.00
77216;BME280;66210;53.282;9.864;2023-11-19T11:01:13;60394.31;;;-145.67;100.00
77216;BME280;66210;53.282;9.864;2023-11-19T11:03:44;60394.31;;;-145.67;100.00
77216;BME280;66210;53.282;9.864;2023-11-19T11:06:13;60394.31;;;-145.67;100.00
77216;BME280;66210;53.282;9.864;2023-11-19T11:08:40;60394.31;;;-145.67;100.00
77216;BME280;66210;53.282;9.864;2023-11-19T11:11:08;60394.31;;;-145.67;100.00
77216;BME280;66210;53.282;9.864;2023-11-19T11:13:36;60394.31;;;-145.67;100.00
77216;BME280;66210;53.282;9.864;2023-11-19T11:16:06;60394.31;;;-145.67;100.00
77216;BME280;66210;53.282;9.864;2023-11-19T11:18:34;60394.31;;;-145.67;100.00
77216;BME280;66210;53.282;9.864;2023-11-19T11:21:07;60394.31;;;-145.67;100.00
77216;BME280;66210;53.282;9.864;2023-11-19T11:24:38;60394.31;;;-145.67;100.00
77216;BME280;66210;53.282;9.864;2023-11-19T11:30:13;60394.31;;;-145.67;100.00
77216;BME280;66210;53.282;9.864;2023-11-19T11:32:57;60394.31;;;-145.67;100.00
77216;BME280;66210;53.282;9.864;2023-11-19T11:35:35;60394.31;;;-145.67;100.00
77216;BME280;66210;53.282;9.864;2023-11-19T11:38:09;60394.31;;;-145.67;100.00
77216;BME280;66210;53.282;9.864;2023-11-19T11:40:36;60394.31;;;-145.67;100.00
77216;BME280;66210;53.282;9.864;2023-11-19T11:43:03;60394.31;;;-145.67;100.00
77216;BME280;66210;53.282;9.864;2023-11-19T11:45:36;60394.31;;;-145.67;100.00
77216;BME280;66210;53.282;9.864;2023-11-19T11:48:16;60394.31;;;-145.67;100.00
77216;BME280;66210;53.282;9.864;2023-11-19T11:50:50;60394.31;;;-145.67;100.00
77216;BME280;66210;53.282;9.864;2023-11-19T11:53:18;60394.31;;;-145.67;100.00
77216;BME280;66210;53.282;9.864;2023-11-19T11:58:36;60394.31;;;-145.67;100.00
77216;BME280;66210;53.282;9.864;2023-11-19T12:01:05;60394.31;;;-145.67;100.00
77216;BME280;66210;53.282;9.864;2023-11-19T12:03:36;60394.31;;;-145.67;100.00
77216;BME280;66210;53.282;9.864;2023-11-19T12:06:05;60394.31;;;-145.67;100.00
77216;BME280;66210;53.282;9.864;2023-11-19T12:08:34;60394.31;;;-145.67;100.00
77216;BME280;66210;53.282;9.864;2023-11-19T12:11:18;60394.31;;;-145.67;100.00
77216;BME280;66210;53.282;9.864;2023-11-19T12:13:52;60394.31;;;-145.67;100.00
77216;BME280;66210;53.282;9.864;2023-11-19T12:16:20;60394.31;;;-145.67;100.00
77216;BME280;66210;53.282;9.864;2023-11-19T12:18:48;60394.31;;;-145.67;100.00
77216;BME280;66210;53.282;9.864;2023-11-19T12:21:29;60394.31;;;-145.67;100.00
77216;BME280;66210;53.282;9.864;2023-11-19T12:23:59;60394.31;;;-145.67;100.00
77216;BME280;66210;53.282;9.864;2023-11-19T12:26:36;60394.31;;;-145.67;100.00
77216;BME280;66210;53.282;9.864;2023-11-19T12:29:06;60394.31;;;-145.67;100.00
77216;BME280;66210;53.282;9.864;2023-11-19T12:31:35;60394.31;;;-145.67;100.00
77216;BME280;66210;53.282;9.864;2023-11-19T12:34:06;60394.31;;;-145.67;100.00
77216;BME280;66210;53.282;9.864;2023-11-19T12:36:34;60394.31;;;-145.67;100.00
77216;BME280;66210;53.282;9.864;2023-11-19T12:39:01;60394.31;;;-145.67;100.00
77216;BME280;66210;53.282;9.864;2023-11-19T12:41:28;60394.31;;;-145.67;100.00
77216;BME280;66210;53.282;9.864;2023-11-19T12:44:09;60394.31;;;-145.67;100.00
77216;BME280;66210;53.282;9.864;2023-11-19T12:46:35;60394.31;;;-145.67;100.00
77216;BME280;66210;53.282;9.864;2023-11-19T12:49:02;60394.31;;;-145.67;100.00